Terminal Aerodrome Forecast
Issued by NWS

Home | Current Version | Previous Version | Text Only | Print | Product List | Glossary On
Versions: 1 2 3 4 5 6 7 8 9 10 11 12 13 14 15 16 17 18 19 20 21 22 23
000
FTUS43 KICT 060520
TAFRSL
TAF
KRSL 060520Z 0606/0706 15017KT P6SM VCSH OVC015
      TEMPO 0606/0610 SCT015 OVC025
     FM061000 15007KT 4SM RA OVC008
     FM061400 17013KT P6SM VCSH OVC013
     FM061700 18017G22KT P6SM OVC025=

USA.gov is the U.S. government's official web portal to all federal, state and local government web resources and services.